createdAt,value
2019-04-14T00:01:52.506Z,102444.13
2019-04-14T00:04:24.838Z,102447.98
2019-04-14T00:06:57.306Z,102453.88
2019-04-14T00:09:29.740Z,102452.59
2019-04-14T00:12:04.704Z,102454.67
2019-04-14T00:14:36.196Z,102447.82
2019-04-14T00:17:08.786Z,102449.74
2019-04-14T00:19:41.345Z,102455.27
2019-04-14T00:22:14.167Z,102450.23
2019-04-14T00:24:46.748Z,102453.39
2019-04-14T00:27:21.226Z,102442.73
2019-04-14T00:29:55.266Z,102445.31
2019-04-14T00:32:27.520Z,102448.41
2019-04-14T00:34:59.778Z,102441.98
2019-04-14T00:37:32.113Z,102444.81
2019-04-14T00:40:04.401Z,102432.61
2019-04-14T00:42:36.691Z,102431.55
2019-04-14T00:45:09.157Z,102428.86
2019-04-14T00:47:51.966Z,102424.86
2019-04-14T00:50:16.759Z,102430.25
2019-04-14T00:52:50.652Z,102416.34
2019-04-14T00:55:23.013Z,102425.22
2019-04-14T00:57:55.329Z,102424.42
2019-04-14T01:00:27.662Z,102421.47
2019-04-14T01:03:00.404Z,102425.06
2019-04-14T01:05:34.547Z,102422.38
2019-04-14T01:08:07.392Z,102424.42
2019-04-14T01:10:39.705Z,102426.98
2019-04-14T01:13:13.171Z,102423.13
2019-04-14T01:15:57.045Z,102422.87
2019-04-14T01:18:21.221Z,102418.25
2019-04-14T01:20:55.692Z,102418.48
2019-04-14T01:23:28.362Z,102419.64
2019-04-14T01:26:01.095Z,102420.92
2019-04-14T01:28:33.462Z,102419.11
2019-04-14T01:31:07.672Z,102419.48
2019-04-14T01:33:40.208Z,102427.57
2019-04-14T01:36:12.794Z,102417.83
2019-04-14T01:38:45.290Z,102416.39
2019-04-14T01:41:17.526Z,102416.80
2019-04-14T01:43:49.983Z,102419.97
2019-04-14T01:46:27.659Z,102421.62
2019-04-14T01:48:56.456Z,102415.36
2019-04-14T01:51:28.911Z,102414.23
2019-04-14T01:54:02.313Z,102411.66
2019-04-14T01:56:34.611Z,102414.33
2019-04-14T01:59:06.815Z,102416.11
2019-04-14T02:01:39.051Z,102419.31
2019-04-14T02:04:11.683Z,102417.38
2019-04-14T02:06:44.186Z,102410.27
2019-04-14T02:09:16.516Z,102411.56
2019-04-14T02:11:49.374Z,102408.61
2019-04-14T02:14:21.714Z,102411.19
2019-04-14T02:16:57.093Z,102413.00
2019-04-14T02:19:28.541Z,102408.11
2019-04-14T02:22:00.833Z,102417.70
2019-04-14T02:24:33.454Z,102411.54
2019-04-14T02:27:05.865Z,102410.38
2019-04-14T02:29:38.421Z,102411.16
2019-04-14T02:35:13.312Z,102419.63
2019-04-14T02:37:57.942Z,102416.14
2019-04-14T02:45:35.507Z,102418.59
2019-04-14T02:53:20.914Z,102426.58
2019-04-14T02:55:48.921Z,102424.50
2019-04-14T03:00:58.311Z,102437.66
2019-04-14T03:06:05.318Z,102438.13
2019-04-14T03:11:24.499Z,102442.58
2019-04-14T03:13:45.903Z,102445.78
2019-04-14T03:16:29.757Z,102452.95
2019-04-14T03:21:26.341Z,102451.67
2019-04-14T03:24:03.622Z,102458.72
2019-04-14T03:26:38.805Z,102461.29
2019-04-14T03:29:08.116Z,102459.47
2019-04-14T03:37:20.167Z,102461.64
2019-04-14T03:39:26.823Z,102463.30
2019-04-14T03:42:01.612Z,102469.56
2019-04-14T03:44:37.241Z,102467.63
2019-04-14T03:47:13.603Z,102466.34
2019-04-14T03:52:21.891Z,102470.66
2019-04-14T03:54:46.902Z,102468.94
2019-04-14T03:56:59.835Z,102462.23
2019-04-14T03:59:32.417Z,102463.77
2019-04-14T04:02:05.354Z,102461.05
2019-04-14T04:04:38.086Z,102463.49
2019-04-14T04:07:10.519Z,102459.27
2019-04-14T04:09:43.322Z,102461.30
2019-04-14T04:12:16.026Z,102457.08
2019-04-14T04:14:48.588Z,102462.20
2019-04-14T04:17:21.266Z,102457.98
2019-04-14T04:19:53.626Z,102456.07
2019-04-14T04:22:26.089Z,102458.55
2019-04-14T04:24:58.599Z,102460.02
2019-04-14T04:27:31.003Z,102465.23
2019-04-14T04:30:03.776Z,102463.94
2019-04-14T04:32:36.342Z,102469.56
2019-04-14T04:35:08.628Z,102466.11
2019-04-14T04:37:43.336Z,102467.39
2019-04-14T04:40:16.138Z,102468.67
2019-04-14T04:42:48.854Z,102466.91
2019-04-14T04:45:21.355Z,102471.93
2019-04-14T04:47:53.697Z,102468.50
2019-04-14T04:50:26.099Z,102468.16
2019-04-14T04:52:58.385Z,102471.46
2019-04-14T04:55:30.695Z,102472.09
2019-04-14T04:58:03.409Z,102474.28
2019-04-14T05:00:35.722Z,102475.41
2019-04-14T05:03:08.192Z,102478.89
2019-04-14T05:05:40.561Z,102476.31
2019-04-14T05:08:13.084Z,102483.86
2019-04-14T05:10:45.684Z,102477.07
2019-04-14T05:13:18.431Z,102480.80
2019-04-14T05:15:51.076Z,102484.30
2019-04-14T05:18:24.518Z,102481.10
2019-04-14T05:20:57.435Z,102478.16
2019-04-14T05:23:30.011Z,102479.45
2019-04-14T05:26:02.745Z,102479.32
2019-04-14T05:28:35.322Z,102476.66
2019-04-14T05:31:07.709Z,102484.91
2019-04-14T05:33:40.407Z,102483.36
2019-04-14T05:36:15.094Z,102485.02
2019-04-14T05:38:47.675Z,102487.88
2019-04-14T05:41:20.173Z,102485.26
2019-04-14T05:43:57.109Z,102492.55
2019-04-14T05:46:29.526Z,102503.53
2019-04-14T05:49:02.254Z,102505.13
2019-04-14T05:51:35.098Z,102505.13
2019-04-14T05:54:07.800Z,102505.46
2019-04-14T05:56:40.725Z,102503.75
2019-04-14T05:59:13.504Z,102506.52
2019-04-14T06:01:46.523Z,102511.94
2019-04-14T06:04:19.935Z,102514.45
2019-04-14T06:06:52.395Z,102505.16
2019-04-14T06:09:24.733Z,102512.71
2019-04-14T06:11:57.032Z,102514.34
2019-04-14T06:14:29.367Z,102513.34
2019-04-14T06:17:01.627Z,102525.73
2019-04-14T06:19:37.964Z,102527.93
2019-04-14T06:22:08.898Z,102529.34
2019-04-14T06:24:41.154Z,102527.16
2019-04-14T06:27:13.450Z,102524.56
2019-04-14T06:29:45.692Z,102524.19
2019-04-14T06:32:18.157Z,102519.00
2019-04-14T06:34:51.662Z,102520.94
2019-04-14T06:37:26.184Z,102518.95
2019-04-14T06:39:58.217Z,102518.44
2019-04-14T06:42:30.797Z,102515.95
2019-04-14T06:45:03.084Z,102517.87
2019-04-14T06:47:35.411Z,102516.09
2019-04-14T06:50:07.720Z,102529.00
2019-04-14T06:52:40.039Z,102516.62
2019-04-14T06:55:12.456Z,102521.53
2019-04-14T06:57:44.927Z,102519.83
2019-04-14T07:00:17.081Z,102526.59
2019-04-14T07:02:49.323Z,102521.41
2019-04-14T07:05:22.154Z,102527.12
2019-04-14T07:07:57.360Z,102524.54
2019-04-14T07:10:28.546Z,102524.38
2019-04-14T07:13:00.831Z,102525.38
2019-04-14T07:15:33.106Z,102527.88
2019-04-14T07:18:05.518Z,102531.60
2019-04-14T07:20:37.735Z,102536.81
2019-04-14T07:23:09.977Z,102532.89
2019-04-14T07:25:42.317Z,102524.83
2019-04-14T07:28:14.640Z,102531.41
2019-04-14T07:30:47.192Z,102530.27
2019-04-14T07:33:19.463Z,102536.09
2019-04-14T07:35:51.722Z,102535.77
2019-04-14T07:38:24.192Z,102536.52
2019-04-14T07:40:56.417Z,102538.07
2019-04-14T07:43:28.499Z,102534.88
2019-04-14T07:46:00.825Z,102535.91
2019-04-14T07:48:33.437Z,102534.92
2019-04-14T07:51:05.755Z,102531.13
2019-04-14T07:53:38.008Z,102529.89
2019-04-14T07:56:10.275Z,102540.98
2019-04-14T07:58:42.519Z,102541.13
2019-04-14T08:01:15.194Z,102547.20
2019-04-14T08:03:47.612Z,102546.67
2019-04-14T08:06:19.811Z,102550.41
2019-04-14T08:08:52.129Z,102547.04
2019-04-14T08:11:24.557Z,102547.50
2019-04-14T08:13:56.867Z,102559.34
2019-04-14T08:16:29.188Z,102554.27
2019-04-14T08:19:01.434Z,102556.74
2019-04-14T08:21:33.727Z,102555.93
2019-04-14T08:24:05.944Z,102563.66
2019-04-14T08:26:38.506Z,102559.98
2019-04-14T08:29:11.395Z,102560.80
2019-04-14T08:31:43.767Z,102568.30
2019-04-14T08:34:16.085Z,102561.92
2019-04-14T08:36:49.028Z,102568.98
2019-04-14T08:39:21.345Z,102567.44
2019-04-14T08:41:53.879Z,102564.96
2019-04-14T08:44:27.077Z,102563.28
2019-04-14T08:46:59.371Z,102551.63
2019-04-14T08:49:32.162Z,102546.20
2019-04-14T08:52:05.628Z,102549.45
2019-04-14T08:54:39.104Z,102552.95
2019-04-14T08:57:11.415Z,102556.28
2019-04-14T08:59:43.696Z,102558.44
2019-04-14T09:02:15.947Z,102557.53
2019-04-14T09:04:48.155Z,102560.52
2019-04-14T09:07:20.622Z,102556.88
2019-04-14T09:09:52.851Z,102566.64
2019-04-14T09:12:25.138Z,102568.48
2019-04-14T09:14:57.833Z,102568.73
2019-04-14T09:17:31.341Z,102566.27
2019-04-14T09:20:03.875Z,102568.50
2019-04-14T09:22:36.373Z,102564.16
2019-04-14T09:25:08.666Z,102568.80
2019-04-14T09:27:40.979Z,102568.48
2019-04-14T09:30:13.727Z,102566.04
2019-04-14T09:32:46.215Z,102556.71
2019-04-14T09:35:18.706Z,102569.31
2019-04-14T09:37:51.345Z,102568.73
2019-04-14T09:40:23.888Z,102570.75
2019-04-14T09:42:57.760Z,102564.77
2019-04-14T09:45:30.512Z,102560.16
2019-04-14T09:48:03.264Z,102561.70
2019-04-14T09:50:35.776Z,102563.07
2019-04-14T09:53:08.115Z,102563.49
2019-04-14T09:55:40.442Z,102560.90
2019-04-14T09:58:12.955Z,102564.09
2019-04-14T10:00:45.263Z,102559.64
2019-04-14T10:03:17.610Z,102562.20
2019-04-14T10:05:50.905Z,102569.67
2019-04-14T10:08:23.482Z,102574.27
2019-04-14T10:10:56.129Z,102569.66
2019-04-14T10:13:28.375Z,102574.39
2019-04-14T10:16:00.769Z,102571.69
2019-04-14T10:18:33.068Z,102572.72
2019-04-14T10:21:17.270Z,102572.80
2019-04-14T10:23:41.989Z,102572.30
2019-04-14T10:26:14.241Z,102570.96
2019-04-14T10:28:46.728Z,102570.38
2019-04-14T10:31:19.232Z,102572.63
2019-04-14T10:33:52.651Z,102563.30
2019-04-14T10:36:24.949Z,102562.85
2019-04-14T10:38:58.096Z,102561.78
2019-04-14T10:41:30.457Z,102571.25
2019-04-14T10:44:02.835Z,102564.31
2019-04-14T10:46:35.789Z,102565.79
2019-04-14T10:49:08.153Z,102569.05
2019-04-14T10:51:40.740Z,102565.59
2019-04-14T10:54:13.247Z,102557.27
2019-04-14T10:56:45.502Z,102560.77
2019-04-14T10:59:17.932Z,102568.95
2019-04-14T11:01:50.543Z,102563.27
2019-04-14T11:04:24.081Z,102561.42
2019-04-14T11:06:58.038Z,102551.06
2019-04-14T11:09:30.273Z,102573.19
2019-04-14T11:12:02.517Z,102567.34
2019-04-14T11:14:35.031Z,102555.67
2019-04-14T11:17:08.162Z,102557.66
2019-04-14T11:19:40.517Z,102558.39
2019-04-14T11:22:12.895Z,102558.42
2019-04-14T11:24:46.028Z,102558.41
2019-04-14T11:27:20.223Z,102560.28
2019-04-14T11:29:54.127Z,102565.30
2019-04-14T11:32:26.495Z,102553.17
2019-04-14T11:34:58.746Z,102551.94
2019-04-14T11:37:31.128Z,102551.87
2019-04-14T11:40:03.433Z,102545.77
2019-04-14T11:42:35.779Z,102549.05
2019-04-14T11:45:08.145Z,102542.30
2019-04-14T11:47:40.829Z,102545.88
2019-04-14T11:50:13.105Z,102552.73
2019-04-14T11:52:45.504Z,102551.16
2019-04-14T11:55:17.936Z,102556.06
2019-04-14T11:57:50.247Z,102539.72
2019-04-14T12:00:24.983Z,102547.39
2019-04-14T12:02:58.874Z,102540.44
2019-04-14T12:05:31.156Z,102549.72
2019-04-14T12:08:03.830Z,102546.95
2019-04-14T12:10:36.202Z,102554.03
2019-04-14T12:13:08.534Z,102542.03
2019-04-14T12:15:40.925Z,102547.52
2019-04-14T12:18:13.755Z,102541.73
2019-04-14T12:20:46.607Z,102551.28
2019-04-14T12:23:19.998Z,102550.54
2019-04-14T12:26:04.647Z,102559.89
2019-04-14T12:28:28.882Z,102558.27
2019-04-14T12:31:02.029Z,102560.80
2019-04-14T12:33:34.940Z,102551.16
2019-04-14T12:36:09.009Z,102558.39
2019-04-14T12:38:41.227Z,102561.14
2019-04-14T12:41:13.471Z,102552.83
2019-04-14T12:43:45.826Z,102561.60
2019-04-14T12:46:18.639Z,102557.25
2019-04-14T12:48:51.517Z,102557.27
2019-04-14T12:51:24.336Z,102558.62
2019-04-14T12:53:56.873Z,102549.59
2019-04-14T12:56:29.727Z,102557.18
2019-04-14T12:59:02.548Z,102551.06
2019-04-14T13:01:35.425Z,102546.58
2019-04-14T13:04:08.255Z,102557.04
2019-04-14T13:06:41.198Z,102558.52
2019-04-14T13:09:14.638Z,102555.00
2019-04-14T13:11:47.862Z,102550.55
2019-04-14T13:14:20.741Z,102549.34
2019-04-14T13:16:53.631Z,102555.94
2019-04-14T13:19:27.149Z,102561.80
2019-04-14T13:22:02.497Z,102552.01
2019-04-14T13:24:39.603Z,102550.34
2019-04-14T13:27:13.678Z,102547.24
2019-04-14T13:29:47.516Z,102538.84
2019-04-14T13:32:35.918Z,102532.84
2019-04-14T13:35:02.070Z,102526.70
2019-04-14T13:37:35.382Z,102524.21
2019-04-14T13:40:10.395Z,102524.83
2019-04-14T13:42:43.897Z,102523.41
2019-04-14T13:45:17.382Z,102527.31
2019-04-14T13:47:50.497Z,102525.00
2019-04-14T13:50:23.417Z,102528.49
2019-04-14T13:52:56.301Z,102515.69
2019-04-14T13:55:28.633Z,102524.84
2019-04-14T13:58:01.075Z,102518.05
2019-04-14T14:00:33.368Z,102516.69
2019-04-14T14:03:05.696Z,102512.83
2019-04-14T14:05:38.345Z,102507.21
2019-04-14T14:08:15.518Z,102509.55
2019-04-14T14:10:48.639Z,102510.53
2019-04-14T14:13:21.465Z,102513.33
2019-04-14T14:15:55.408Z,102504.25
2019-04-14T14:18:33.236Z,102497.44
2019-04-14T14:21:06.999Z,102495.67
2019-04-14T14:23:41.045Z,102500.88
2019-04-14T14:26:15.520Z,102491.86
2019-04-14T14:28:49.840Z,102493.26
2019-04-14T14:31:30.456Z,102483.55
2019-04-14T14:34:03.619Z,102481.67
2019-04-14T14:36:37.575Z,102486.32
2019-04-14T14:39:10.819Z,102485.23
2019-04-14T14:41:44.549Z,102493.63
2019-04-14T14:44:19.072Z,102493.63
2019-04-14T14:46:53.056Z,102487.58
2019-04-14T14:49:26.534Z,102493.73
2019-04-14T14:52:03.720Z,102494.80
2019-04-14T14:54:41.417Z,102497.75
2019-04-14T14:57:13.737Z,102504.87
2019-04-14T14:59:49.693Z,102506.05
2019-04-14T15:02:23.709Z,102502.53
2019-04-14T15:04:56.199Z,102500.45
2019-04-14T15:07:31.657Z,102498.64
2019-04-14T15:10:05.135Z,102503.92
2019-04-14T15:12:40.241Z,102503.09
2019-04-14T15:15:19.586Z,102513.33
2019-04-14T15:17:52.378Z,102495.48
2019-04-14T15:20:26.193Z,102515.70
2019-04-14T15:23:03.207Z,102504.80
2019-04-14T15:25:37.477Z,102518.92
2019-04-14T15:28:11.122Z,102523.00
2019-04-14T15:30:44.085Z,102518.42
2019-04-14T15:33:20.499Z,102503.83
2019-04-14T15:36:02.229Z,102514.02
2019-04-14T15:38:41.500Z,102509.38
2019-04-14T15:41:14.455Z,102509.38
2019-04-14T15:43:51.134Z,102516.68
2019-04-14T15:46:27.459Z,102513.83
2019-04-14T15:49:00.855Z,102503.51
2019-04-14T15:51:33.169Z,102518.98
2019-04-14T15:54:06.323Z,102517.84
2019-04-14T15:56:39.774Z,102520.49
2019-04-14T15:59:12.974Z,102523.72
2019-04-14T16:01:47.382Z,102520.44
2019-04-14T16:04:20.873Z,102525.16
2019-04-14T16:06:54.681Z,102512.33
2019-04-14T16:09:29.748Z,102527.91
2019-04-14T16:12:03.224Z,102531.81
2019-04-14T16:14:36.161Z,102530.00
2019-04-14T16:17:10.069Z,102532.58
2019-04-14T16:19:42.802Z,102531.88
2019-04-14T16:22:16.341Z,102529.66
2019-04-14T16:24:48.486Z,102528.91
2019-04-14T16:27:20.791Z,102530.95
2019-04-14T16:29:52.967Z,102534.39
2019-04-14T16:32:25.372Z,102535.77
2019-04-14T16:34:57.789Z,102541.75
2019-04-14T16:37:30.051Z,102545.30
2019-04-14T16:40:02.401Z,102544.81
2019-04-14T16:42:35.421Z,102540.19
2019-04-14T16:45:08.195Z,102541.66
2019-04-14T16:47:42.068Z,102544.55
2019-04-14T16:50:16.952Z,102542.53
2019-04-14T16:52:49.367Z,102534.23
2019-04-14T16:55:21.855Z,102529.01
2019-04-14T16:57:54.083Z,102524.13
2019-04-14T17:00:26.396Z,102534.25
2019-04-14T17:02:59.173Z,102529.20
2019-04-14T17:05:31.638Z,102531.44
2019-04-14T17:08:03.989Z,102537.20
2019-04-14T17:10:36.393Z,102530.50
2019-04-14T17:13:08.869Z,102527.41
2019-04-14T17:15:41.202Z,102522.33
2019-04-14T17:18:14.264Z,102524.01
2019-04-14T17:20:46.661Z,102526.47
2019-04-14T17:23:18.940Z,102518.09
2019-04-14T17:25:51.517Z,102516.73
2019-04-14T17:28:24.024Z,102521.70
2019-04-14T17:30:56.304Z,102522.45
2019-04-14T17:33:28.826Z,102525.26
2019-04-14T17:36:01.190Z,102525.12
2019-04-14T17:38:35.106Z,102528.03
2019-04-14T17:41:07.560Z,102528.78
2019-04-14T17:43:39.944Z,102527.21
2019-04-14T17:46:12.256Z,102530.46
2019-04-14T17:48:44.567Z,102531.59
2019-04-14T17:51:17.157Z,102537.70
2019-04-14T17:53:49.646Z,102537.66
2019-04-14T17:56:22.289Z,102537.17
2019-04-14T17:58:55.697Z,102531.39
2019-04-14T18:01:28.060Z,102534.75
2019-04-14T18:04:00.795Z,102540.33
2019-04-14T18:06:33.133Z,102538.05
2019-04-14T18:09:05.408Z,102540.84
2019-04-14T18:11:38.307Z,102546.39
2019-04-14T18:14:10.695Z,102548.02
2019-04-14T18:16:42.921Z,102555.02
2019-04-14T18:19:18.422Z,102550.02
2019-04-14T18:21:53.415Z,102555.14
2019-04-14T18:24:27.745Z,102554.44
2019-04-14T18:27:00.333Z,102558.98
2019-04-14T18:29:32.717Z,102561.92
2019-04-14T18:32:05.349Z,102569.30
2019-04-14T18:34:38.089Z,102569.98
2019-04-14T18:37:10.439Z,102573.77
2019-04-14T18:39:42.686Z,102581.48
2019-04-14T18:42:17.495Z,102577.80
2019-04-14T18:44:50.823Z,102581.59
2019-04-14T18:47:23.910Z,102589.67
2019-04-14T18:49:59.185Z,102588.70
2019-04-14T18:52:31.714Z,102589.33
2019-04-14T18:55:04.167Z,102601.02
2019-04-14T18:57:37.166Z,102605.17
2019-04-14T19:00:09.969Z,102609.90
2019-04-14T19:02:46.578Z,102615.39
2019-04-14T19:05:22.018Z,102619.73
2019-04-14T19:07:55.266Z,102622.07
2019-04-14T19:10:28.529Z,102619.70
2019-04-14T19:13:00.934Z,102625.91
2019-04-14T19:15:33.328Z,102627.70
2019-04-14T19:18:05.853Z,102634.16
2019-04-14T19:20:38.947Z,102638.34
2019-04-14T19:23:11.728Z,102645.45
2019-04-14T19:25:45.450Z,102643.37
2019-04-14T19:28:18.372Z,102646.17
2019-04-14T19:30:50.931Z,102645.79
2019-04-14T19:33:23.189Z,102642.69
2019-04-14T19:35:55.715Z,102641.47
2019-04-14T19:38:27.888Z,102648.69
2019-04-14T19:41:00.300Z,102647.89
2019-04-14T19:43:32.785Z,102641.99
2019-04-14T19:46:07.318Z,102645.77
2019-04-14T19:48:41.881Z,102645.07
2019-04-14T19:51:16.636Z,102647.64
2019-04-14T19:53:52.345Z,102654.25
2019-04-14T19:56:25.192Z,102662.64
2019-04-14T19:58:57.696Z,102657.84
2019-04-14T20:01:30.209Z,102661.73
2019-04-14T20:04:03.029Z,102663.03
2019-04-14T20:06:38.214Z,102662.00
2019-04-14T20:09:12.127Z,102666.00
2019-04-14T20:11:44.429Z,102667.89
2019-04-14T20:14:16.744Z,102677.89
2019-04-14T20:16:49.109Z,102685.88
2019-04-14T20:19:21.479Z,102692.95
2019-04-14T20:21:53.819Z,102694.13
2019-04-14T20:24:26.604Z,102687.94
2019-04-14T20:26:58.762Z,102687.55
2019-04-14T20:29:31.032Z,102686.25
2019-04-14T20:32:03.279Z,102688.13
2019-04-14T20:34:35.608Z,102694.02
2019-04-14T20:37:07.913Z,102691.82
2019-04-14T20:39:40.167Z,102695.98
2019-04-14T20:42:12.549Z,102689.29
2019-04-14T20:44:44.793Z,102687.39
2019-04-14T20:47:17.193Z,102679.79
2019-04-14T20:49:49.463Z,102683.56
2019-04-14T20:52:21.688Z,102678.16
2019-04-14T20:54:55.822Z,102673.48
2019-04-14T20:57:28.431Z,102671.28
2019-04-14T21:00:01.507Z,102673.36
2019-04-14T21:02:35.537Z,102667.38
2019-04-14T21:05:07.991Z,102679.13
2019-04-14T21:07:40.472Z,102675.03
2019-04-14T21:10:13.231Z,102677.42
2019-04-14T21:12:45.809Z,102675.61
2019-04-14T21:15:19.164Z,102678.81
2019-04-14T21:17:51.727Z,102678.48
2019-04-14T21:20:25.896Z,102673.27
2019-04-14T21:23:00.270Z,102679.94
2019-04-14T21:25:33.378Z,102673.33
2019-04-14T21:28:05.671Z,102678.82
2019-04-14T21:30:38.037Z,102680.38
2019-04-14T21:33:10.232Z,102681.47
2019-04-14T21:35:42.512Z,102681.38
2019-04-14T21:38:14.849Z,102688.44
2019-04-14T21:40:47.205Z,102695.10
2019-04-14T21:43:19.471Z,102683.03
2019-04-14T21:45:51.683Z,102684.91
2019-04-14T21:48:28.594Z,102684.78
2019-04-14T21:51:01.429Z,102692.26
2019-04-14T21:53:35.635Z,102688.81
2019-04-14T21:56:13.477Z,102691.48
2019-04-14T21:58:42.649Z,102687.08
2019-04-14T22:01:14.913Z,102685.27
2019-04-14T22:03:48.501Z,102688.94
2019-04-14T22:06:20.828Z,102692.49
2019-04-14T22:08:53.093Z,102699.70
2019-04-14T22:11:25.418Z,102715.22
2019-04-14T22:13:57.890Z,102712.41
2019-04-14T22:16:30.315Z,102719.83
2019-04-14T22:19:03.049Z,102724.31
2019-04-14T22:21:36.050Z,102726.27
2019-04-14T22:24:08.461Z,102740.25
2019-04-14T22:26:40.714Z,102744.02
2019-04-14T22:29:13.066Z,102758.17
2019-04-14T22:31:45.522Z,102747.97
2019-04-14T22:34:17.817Z,102744.57
2019-04-14T22:36:50.384Z,102729.59
2019-04-14T22:39:22.847Z,102728.83
2019-04-14T22:41:58.633Z,102730.83
2019-04-14T22:44:31.191Z,102729.74
2019-04-14T22:47:04.218Z,102734.45
2019-04-14T22:49:37.176Z,102743.52
2019-04-14T22:52:11.222Z,102737.67
2019-04-14T22:54:44.713Z,102734.38
2019-04-14T22:57:17.463Z,102736.38
2019-04-14T22:59:49.947Z,102739.84
2019-04-14T23:02:22.239Z,102742.13
2019-04-14T23:04:54.468Z,102747.05
2019-04-14T23:07:26.837Z,102742.64
2019-04-14T23:09:59.300Z,102740.62
2019-04-14T23:12:31.602Z,102738.11
2019-04-14T23:15:03.911Z,102738.89
2019-04-14T23:17:36.393Z,102744.99
2019-04-14T23:20:09.009Z,102745.51
2019-04-14T23:22:41.281Z,102745.98
2019-04-14T23:25:13.571Z,102741.92
2019-04-14T23:27:45.793Z,102730.55
2019-04-14T23:30:18.112Z,102728.42
2019-04-14T23:32:50.342Z,102731.50
2019-04-14T23:35:22.583Z,102729.08
2019-04-14T23:37:54.846Z,102724.11
2019-04-14T23:40:27.359Z,102727.86
2019-04-14T23:42:59.591Z,102727.63
2019-04-14T23:45:31.842Z,102727.05
2019-04-14T23:48:04.139Z,102729.67
2019-04-14T23:50:36.395Z,102730.88
2019-04-14T23:53:08.670Z,102728.61
2019-04-14T23:55:40.894Z,102728.22
2019-04-14T23:58:13.198Z,102717.63
